フェアバンクス の空港の天気 - METARとTAF

フェアバンクス国際空港 ( PAFA / FAI ) - アメリカ アラスカ州フェアバンクス
飛行場実況気象(Metar)
観測時間04/21 08:53 AKDT (04/21 16:53 UTC)
風向・風速北東 3m/s
視程10km以上
天気現象
少しの雲 雲底高度 4570m
全天の8割程度の雲 雲底高度 6100m
気温2.8℃
湿度50%
気圧999.9hPa
METARPAFA 211653Z COR 04005KT 10SM FEW150 BKN200 03/M07 A2951 RMK AO2 SLP999 T00281067 $
過去の天気等 Google飛行場航空写真 Wunderground天気予報

過去48時間のMETAR

飛行場予報(TAF)
発表時間: 4/21 03:20 AKDT (4/21 11:20 UTC)
予報対象時間: 21日4時 AKDT ~ 22日10時 AKDT
風向・風速北 3m/s
視程10km以上
全天の4割程度の雲 雲底高度 4570m
全天の8割程度の雲 雲底高度 6100m
21日14時 AKDT から
風向・風速東 5m/s 瞬間風速 11m/s
視程10km以上
少しの雲 雲底高度 1520m
全天の4割程度の雲 雲底高度 2440m
全天の8割程度の雲 雲底高度 4570m
22日0時 AKDT から
風向・風速北北東 3m/s
視程10km以上
全天の4割程度の雲 雲底高度 2440m
全天の8割程度の雲 雲底高度 4570m
PAFA 211120Z 2112/2218 35005KT P6SM SCT150 BKN200
FM212200 08009G22KT P6SM FEW050 SCT080 BKN150
FM220800 03006KT P6SM SCT080 BKN150